sensor_id;sensor_type;location;lat;lon;timestamp;temperature;humidity
7494;DHT22;3788;49.902;8.590;2022-11-15T00:00:17;12.10;99.90
7494;DHT22;3788;49.902;8.590;2022-11-15T00:02:43;12.00;99.90
7494;DHT22;3788;49.902;8.590;2022-11-15T00:05:11;12.00;99.90
7494;DHT22;3788;49.902;8.590;2022-11-15T00:07:38;12.10;99.90
7494;DHT22;3788;49.902;8.590;2022-11-15T00:10:06;12.10;99.90
7494;DHT22;3788;49.902;8.590;2022-11-15T00:12:32;12.10;99.90
7494;DHT22;3788;49.902;8.590;2022-11-15T00:14:59;12.10;99.90
7494;DHT22;3788;49.902;8.590;2022-11-15T00:17:26;12.10;99.90
7494;DHT22;3788;49.902;8.590;2022-11-15T00:19:53;12.10;99.90
7494;DHT22;3788;49.902;8.590;2022-11-15T00:22:21;12.10;99.90
7494;DHT22;3788;49.902;8.590;2022-11-15T00:24:47;12.10;99.90
7494;DHT22;3788;49.902;8.590;2022-11-15T00:27:14;12.20;99.90
7494;DHT22;3788;49.902;8.590;2022-11-15T00:29:41;12.20;99.90
7494;DHT22;3788;49.902;8.590;2022-11-15T00:32:08;12.20;99.90
7494;DHT22;3788;49.902;8.590;2022-11-15T00:34:35;12.20;99.90
7494;DHT22;3788;49.902;8.590;2022-11-15T00:37:02;12.30;99.90
7494;DHT22;3788;49.902;8.590;2022-11-15T00:39:30;12.30;99.90
7494;DHT22;3788;49.902;8.590;2022-11-15T00:41:56;12.30;99.90
7494;DHT22;3788;49.902;8.590;2022-11-15T00:44:23;12.30;99.90
7494;DHT22;3788;49.902;8.590;2022-11-15T00:46:50;12.30;99.90
7494;DHT22;3788;49.902;8.590;2022-11-15T00:49:16;12.30;99.90
7494;DHT22;3788;49.902;8.590;2022-11-15T00:51:43;12.30;99.90
7494;DHT22;3788;49.902;8.590;2022-11-15T00:54:10;12.30;99.90
7494;DHT22;3788;49.902;8.590;2022-11-15T00:56:38;12.30;99.90
7494;DHT22;3788;49.902;8.590;2022-11-15T00:59:05;12.30;99.90
7494;DHT22;3788;49.902;8.590;2022-11-15T01:01:31;12.30;99.90
7494;DHT22;3788;49.902;8.590;2022-11-15T01:03:58;12.30;99.90
7494;DHT22;3788;49.902;8.590;2022-11-15T01:06:25;12.30;99.90
7494;DHT22;3788;49.902;8.590;2022-11-15T01:08:51;12.30;99.90
7494;DHT22;3788;49.902;8.590;2022-11-15T01:11:18;12.20;99.90
7494;DHT22;3788;49.902;8.590;2022-11-15T01:13:46;12.20;99.90
7494;DHT22;3788;49.902;8.590;2022-11-15T01:16:15;12.20;99.90
7494;DHT22;3788;49.902;8.590;2022-11-15T01:18:44;12.20;99.90
7494;DHT22;3788;49.902;8.590;2022-11-15T01:21:13;12.20;99.90
7494;DHT22;3788;49.902;8.590;2022-11-15T01:23:41;12.20;99.90
7494;DHT22;3788;49.902;8.590;2022-11-15T01:26:10;12.20;99.90
7494;DHT22;3788;49.902;8.590;2022-11-15T01:28:39;12.20;99.90
7494;DHT22;3788;49.902;8.590;2022-11-15T01:31:11;12.10;99.90
7494;DHT22;3788;49.902;8.590;2022-11-15T01:33:38;12.10;99.90
7494;DHT22;3788;49.902;8.590;2022-11-15T01:36:05;12.10;99.90
7494;DHT22;3788;49.902;8.590;2022-11-15T01:38:32;12.10;99.90
7494;DHT22;3788;49.902;8.590;2022-11-15T01:40:59;12.10;99.90
7494;DHT22;3788;49.902;8.590;2022-11-15T01:43:28;12.10;99.90
7494;DHT22;3788;49.902;8.590;2022-11-15T01:45:58;12.10;99.90
7494;DHT22;3788;49.902;8.590;2022-11-15T01:48:32;12.10;99.90
7494;DHT22;3788;49.902;8.590;2022-11-15T01:51:00;12.10;99.90
7494;DHT22;3788;49.902;8.590;2022-11-15T01:53:28;12.10;99.90
7494;DHT22;3788;49.902;8.590;2022-11-15T01:55:56;12.20;99.90
7494;DHT22;3788;49.902;8.590;2022-11-15T01:58:22;12.20;99.90
7494;DHT22;3788;49.902;8.590;2022-11-15T02:00:50;12.20;99.90
7494;DHT22;3788;49.902;8.590;2022-11-15T02:03:18;12.20;99.90
7494;DHT22;3788;49.902;8.590;2022-11-15T02:05:46;12.20;99.90
7494;DHT22;3788;49.902;8.590;2022-11-15T02:08:13;12.20;99.90
7494;DHT22;3788;49.902;8.590;2022-11-15T02:10:45;12.30;99.90
7494;DHT22;3788;49.902;8.590;2022-11-15T02:13:13;12.30;99.90
7494;DHT22;3788;49.902;8.590;2022-11-15T02:15:43;12.30;99.90
7494;DHT22;3788;49.902;8.590;2022-11-15T02:18:18;12.30;99.90
7494;DHT22;3788;49.902;8.590;2022-11-15T02:21:02;12.30;99.90
7494;DHT22;3788;49.902;8.590;2022-11-15T02:32:45;12.10;99.90
7494;DHT22;3788;49.902;8.590;2022-11-15T02:35:23;12.00;99.90
7494;DHT22;3788;49.902;8.590;2022-11-15T02:37:57;11.90;99.90
7494;DHT22;3788;49.902;8.590;2022-11-15T02:40:33;11.80;99.90
7494;DHT22;3788;49.902;8.590;2022-11-15T02:43:05;11.80;99.90
7494;DHT22;3788;49.902;8.590;2022-11-15T02:45:56;11.70;99.90
7494;DHT22;3788;49.902;8.590;2022-11-15T02:48:26;11.60;99.90
7494;DHT22;3788;49.902;8.590;2022-11-15T02:50:53;11.60;99.90
7494;DHT22;3788;49.902;8.590;2022-11-15T02:53:24;11.50;99.90
7494;DHT22;3788;49.902;8.590;2022-11-15T02:55:51;11.40;99.90
7494;DHT22;3788;49.902;8.590;2022-11-15T02:58:33;11.40;99.90
7494;DHT22;3788;49.902;8.590;2022-11-15T03:01:09;11.30;99.90
7494;DHT22;3788;49.902;8.590;2022-11-15T03:03:56;11.20;99.90
7494;DHT22;3788;49.902;8.590;2022-11-15T03:06:32;11.20;99.90
7494;DHT22;3788;49.902;8.590;2022-11-15T03:09:04;11.10;99.90
7494;DHT22;3788;49.902;8.590;2022-11-15T03:11:37;11.10;99.90
7494;DHT22;3788;49.902;8.590;2022-11-15T03:14:14;11.10;99.90
7494;DHT22;3788;49.902;8.590;2022-11-15T03:16:48;11.10;99.90
7494;DHT22;3788;49.902;8.590;2022-11-15T03:19:22;11.00;99.90
7494;DHT22;3788;49.902;8.590;2022-11-15T03:21:52;11.00;99.90
7494;DHT22;3788;49.902;8.590;2022-11-15T03:24:22;11.00;99.90
7494;DHT22;3788;49.902;8.590;2022-11-15T03:26:52;11.00;99.90
7494;DHT22;3788;49.902;8.590;2022-11-15T03:29:24;10.90;99.90
7494;DHT22;3788;49.902;8.590;2022-11-15T03:31:55;10.90;99.90
7494;DHT22;3788;49.902;8.590;2022-11-15T03:34:28;10.90;99.90
7494;DHT22;3788;49.902;8.590;2022-11-15T03:36:56;11.00;99.90
7494;DHT22;3788;49.902;8.590;2022-11-15T03:39:23;11.00;99.90
7494;DHT22;3788;49.902;8.590;2022-11-15T03:41:59;11.00;99.90
7494;DHT22;3788;49.902;8.590;2022-11-15T03:44:36;11.00;99.90
7494;DHT22;3788;49.902;8.590;2022-11-15T03:47:08;11.00;99.90
7494;DHT22;3788;49.902;8.590;2022-11-15T03:49:42;11.00;99.90
7494;DHT22;3788;49.902;8.590;2022-11-15T03:52:11;11.10;99.90
7494;DHT22;3788;49.902;8.590;2022-11-15T03:54:48;11.10;99.90
7494;DHT22;3788;49.902;8.590;2022-11-15T03:57:14;11.20;99.90
7494;DHT22;3788;49.902;8.590;2022-11-15T03:59:41;11.20;99.90
7494;DHT22;3788;49.902;8.590;2022-11-15T04:02:08;11.20;99.90
7494;DHT22;3788;49.902;8.590;2022-11-15T04:04:34;11.20;99.90
7494;DHT22;3788;49.902;8.590;2022-11-15T04:07:02;11.20;99.90
7494;DHT22;3788;49.902;8.590;2022-11-15T04:09:29;11.20;99.90
7494;DHT22;3788;49.902;8.590;2022-11-15T04:11:56;11.20;99.90
7494;DHT22;3788;49.902;8.590;2022-11-15T04:14:23;11.20;99.90
7494;DHT22;3788;49.902;8.590;2022-11-15T04:16:49;11.20;99.90
7494;DHT22;3788;49.902;8.590;2022-11-15T04:19:16;11.20;99.90
7494;DHT22;3788;49.902;8.590;2022-11-15T04:22:00;11.20;99.90
7494;DHT22;3788;49.902;8.590;2022-11-15T04:24:46;11.20;99.90
7494;DHT22;3788;49.902;8.590;2022-11-15T04:27:12;11.20;99.90
7494;DHT22;3788;49.902;8.590;2022-11-15T04:29:39;11.20;99.90
7494;DHT22;3788;49.902;8.590;2022-11-15T04:32:06;11.20;99.90
7494;DHT22;3788;49.902;8.590;2022-11-15T04:34:33;11.20;99.90
7494;DHT22;3788;49.902;8.590;2022-11-15T04:37:00;11.20;99.90
7494;DHT22;3788;49.902;8.590;2022-11-15T04:39:39;11.20;99.90
7494;DHT22;3788;49.902;8.590;2022-11-15T04:42:08;11.20;99.90
7494;DHT22;3788;49.902;8.590;2022-11-15T04:44:35;11.20;99.90
7494;DHT22;3788;49.902;8.590;2022-11-15T04:47:01;11.20;99.90
7494;DHT22;3788;49.902;8.590;2022-11-15T04:49:28;11.30;99.90
7494;DHT22;3788;49.902;8.590;2022-11-15T04:51:55;11.20;99.90
7494;DHT22;3788;49.902;8.590;2022-11-15T04:54:21;11.30;99.90
7494;DHT22;3788;49.902;8.590;2022-11-15T04:56:48;11.30;99.90
7494;DHT22;3788;49.902;8.590;2022-11-15T04:59:16;11.30;99.90
7494;DHT22;3788;49.902;8.590;2022-11-15T05:01:43;11.30;99.90
7494;DHT22;3788;49.902;8.590;2022-11-15T05:04:10;11.30;99.90
7494;DHT22;3788;49.902;8.590;2022-11-15T05:06:44;11.30;99.90
7494;DHT22;3788;49.902;8.590;2022-11-15T05:09:11;11.30;99.90
7494;DHT22;3788;49.902;8.590;2022-11-15T05:11:39;11.30;99.90
7494;DHT22;3788;49.902;8.590;2022-11-15T05:14:06;11.30;99.90
7494;DHT22;3788;49.902;8.590;2022-11-15T05:16:34;11.30;99.90
7494;DHT22;3788;49.902;8.590;2022-11-15T05:19:01;11.30;99.90
7494;DHT22;3788;49.902;8.590;2022-11-15T05:21:27;11.30;99.90
7494;DHT22;3788;49.902;8.590;2022-11-15T05:23:54;11.30;99.90
7494;DHT22;3788;49.902;8.590;2022-11-15T05:26:21;11.30;99.90
7494;DHT22;3788;49.902;8.590;2022-11-15T05:28:52;11.20;99.90
7494;DHT22;3788;49.902;8.590;2022-11-15T05:31:19;11.20;99.90
7494;DHT22;3788;49.902;8.590;2022-11-15T05:33:49;11.10;99.90
7494;DHT22;3788;49.902;8.590;2022-11-15T05:36:19;11.10;99.90
7494;DHT22;3788;49.902;8.590;2022-11-15T05:38:48;11.10;99.90
7494;DHT22;3788;49.902;8.590;2022-11-15T05:41:17;11.10;99.90
7494;DHT22;3788;49.902;8.590;2022-11-15T05:43:46;11.10;99.90
7494;DHT22;3788;49.902;8.590;2022-11-15T05:46:13;11.00;99.90
7494;DHT22;3788;49.902;8.590;2022-11-15T05:48:59;11.10;99.90
7494;DHT22;3788;49.902;8.590;2022-11-15T05:51:27;11.10;99.90
7494;DHT22;3788;49.902;8.590;2022-11-15T05:53:55;11.10;99.90
7494;DHT22;3788;49.902;8.590;2022-11-15T05:56:23;11.10;99.90
7494;DHT22;3788;49.902;8.590;2022-11-15T05:58:51;11.10;99.90
7494;DHT22;3788;49.902;8.590;2022-11-15T06:01:17;11.20;99.90
7494;DHT22;3788;49.902;8.590;2022-11-15T06:03:44;11.10;99.90
7494;DHT22;3788;49.902;8.590;2022-11-15T06:06:12;11.20;99.90
7494;DHT22;3788;49.902;8.590;2022-11-15T06:08:39;11.20;99.90
7494;DHT22;3788;49.902;8.590;2022-11-15T06:11:05;11.20;99.90
7494;DHT22;3788;49.902;8.590;2022-11-15T06:13:32;11.30;99.90
7494;DHT22;3788;49.902;8.590;2022-11-15T06:16:00;11.30;99.90
7494;DHT22;3788;49.902;8.590;2022-11-15T06:18:26;11.30;99.90
7494;DHT22;3788;49.902;8.590;2022-11-15T06:20:53;11.40;99.90
7494;DHT22;3788;49.902;8.590;2022-11-15T06:23:21;11.40;99.90
7494;DHT22;3788;49.902;8.590;2022-11-15T06:25:48;11.40;99.90
7494;DHT22;3788;49.902;8.590;2022-11-15T06:28:15;11.40;99.90
7494;DHT22;3788;49.902;8.590;2022-11-15T06:30:41;11.40;99.90
7494;DHT22;3788;49.902;8.590;2022-11-15T06:33:08;11.40;99.90
7494;DHT22;3788;49.902;8.590;2022-11-15T06:35:35;11.40;99.90
7494;DHT22;3788;49.902;8.590;2022-11-15T06:38:04;11.40;99.90
7494;DHT22;3788;49.902;8.590;2022-11-15T06:40:34;11.40;99.90
7494;DHT22;3788;49.902;8.590;2022-11-15T06:43:01;11.40;99.90
7494;DHT22;3788;49.902;8.590;2022-11-15T06:45:28;11.50;99.90
7494;DHT22;3788;49.902;8.590;2022-11-15T06:47:55;11.50;99.90
7494;DHT22;3788;49.902;8.590;2022-11-15T06:50:22;11.50;99.90
7494;DHT22;3788;49.902;8.590;2022-11-15T06:52:49;11.50;99.90
7494;DHT22;3788;49.902;8.590;2022-11-15T06:55:16;11.50;99.90
7494;DHT22;3788;49.902;8.590;2022-11-15T06:57:51;11.50;99.90
7494;DHT22;3788;49.902;8.590;2022-11-15T07:00:20;11.50;99.90
7494;DHT22;3788;49.902;8.590;2022-11-15T07:02:47;11.50;99.90
7494;DHT22;3788;49.902;8.590;2022-11-15T07:05:14;11.50;99.90
7494;DHT22;3788;49.902;8.590;2022-11-15T07:07:41;11.40;99.90
7494;DHT22;3788;49.902;8.590;2022-11-15T07:10:09;11.40;99.90
7494;DHT22;3788;49.902;8.590;2022-11-15T07:12:35;11.50;99.90
7494;DHT22;3788;49.902;8.590;2022-11-15T07:15:05;11.40;99.90
7494;DHT22;3788;49.902;8.590;2022-11-15T07:17:32;11.50;99.90
7494;DHT22;3788;49.902;8.590;2022-11-15T07:19:59;11.50;99.90
7494;DHT22;3788;49.902;8.590;2022-11-15T07:22:25;11.60;99.90
7494;DHT22;3788;49.902;8.590;2022-11-15T07:24:52;11.60;99.90
7494;DHT22;3788;49.902;8.590;2022-11-15T07:27:20;11.80;99.90
7494;DHT22;3788;49.902;8.590;2022-11-15T07:29:46;11.90;99.90
7494;DHT22;3788;49.902;8.590;2022-11-15T07:32:15;11.90;99.90
7494;DHT22;3788;49.902;8.590;2022-11-15T07:34:41;12.00;99.90
7494;DHT22;3788;49.902;8.590;2022-11-15T07:37:08;12.00;99.90
7494;DHT22;3788;49.902;8.590;2022-11-15T07:39:35;12.00;99.90
7494;DHT22;3788;49.902;8.590;2022-11-15T07:42:02;12.00;99.90
7494;DHT22;3788;49.902;8.590;2022-11-15T07:44:46;12.00;99.90
7494;DHT22;3788;49.902;8.590;2022-11-15T07:47:12;12.00;99.90
7494;DHT22;3788;49.902;8.590;2022-11-15T07:49:41;12.00;99.90
7494;DHT22;3788;49.902;8.590;2022-11-15T07:52:07;12.00;99.90
7494;DHT22;3788;49.902;8.590;2022-11-15T07:54:34;12.10;99.90
7494;DHT22;3788;49.902;8.590;2022-11-15T07:57:01;12.10;99.90
7494;DHT22;3788;49.902;8.590;2022-11-15T07:59:27;12.20;99.90
7494;DHT22;3788;49.902;8.590;2022-11-15T08:01:54;12.20;99.90
7494;DHT22;3788;49.902;8.590;2022-11-15T08:04:21;12.30;99.90
7494;DHT22;3788;49.902;8.590;2022-11-15T08:06:49;12.30;99.90
7494;DHT22;3788;49.902;8.590;2022-11-15T08:09:16;12.30;99.90
7494;DHT22;3788;49.902;8.590;2022-11-15T08:11:43;12.40;99.90
7494;DHT22;3788;49.902;8.590;2022-11-15T08:14:09;12.40;99.90
7494;DHT22;3788;49.902;8.590;2022-11-15T08:16:36;12.40;99.90
7494;DHT22;3788;49.902;8.590;2022-11-15T08:19:03;12.50;99.90
7494;DHT22;3788;49.902;8.590;2022-11-15T08:21:31;12.50;99.90
7494;DHT22;3788;49.902;8.590;2022-11-15T08:23:59;12.50;99.90
7494;DHT22;3788;49.902;8.590;2022-11-15T08:26:26;12.50;99.90
7494;DHT22;3788;49.902;8.590;2022-11-15T08:28:55;12.50;99.90
7494;DHT22;3788;49.902;8.590;2022-11-15T08:31:22;12.50;99.90
7494;DHT22;3788;49.902;8.590;2022-11-15T08:33:49;12.50;99.90
7494;DHT22;3788;49.902;8.590;2022-11-15T08:36:16;12.60;99.90
7494;DHT22;3788;49.902;8.590;2022-11-15T08:38:43;12.60;99.90
7494;DHT22;3788;49.902;8.590;2022-11-15T08:41:14;12.60;99.90
7494;DHT22;3788;49.902;8.590;2022-11-15T08:43:43;12.60;99.90
7494;DHT22;3788;49.902;8.590;2022-11-15T08:46:12;12.60;99.90
7494;DHT22;3788;49.902;8.590;2022-11-15T08:48:39;12.60;99.90
7494;DHT22;3788;49.902;8.590;2022-11-15T08:51:06;12.60;99.90
7494;DHT22;3788;49.902;8.590;2022-11-15T08:53:33;12.60;99.90
7494;DHT22;3788;49.902;8.590;2022-11-15T08:56:00;12.60;99.90
7494;DHT22;3788;49.902;8.590;2022-11-15T08:58:29;12.60;99.90
7494;DHT22;3788;49.902;8.590;2022-11-15T09:00:56;12.60;99.90
7494;DHT22;3788;49.902;8.590;2022-11-15T09:03:22;12.80;99.90
7494;DHT22;3788;49.902;8.590;2022-11-15T09:05:54;12.80;99.90
7494;DHT22;3788;49.902;8.590;2022-11-15T09:08:21;12.80;99.90
7494;DHT22;3788;49.902;8.590;2022-11-15T09:10:47;12.80;99.90
7494;DHT22;3788;49.902;8.590;2022-11-15T09:13:14;12.80;99.90
7494;DHT22;3788;49.902;8.590;2022-11-15T09:15:42;12.90;99.90
7494;DHT22;3788;49.902;8.590;2022-11-15T09:18:09;12.90;99.90
7494;DHT22;3788;49.902;8.590;2022-11-15T09:20:36;13.00;99.90
7494;DHT22;3788;49.902;8.590;2022-11-15T09:23:03;13.00;99.90
7494;DHT22;3788;49.902;8.590;2022-11-15T09:25:31;13.10;99.90
7494;DHT22;3788;49.902;8.590;2022-11-15T09:27:58;13.10;99.90
7494;DHT22;3788;49.902;8.590;2022-11-15T09:30:25;13.10;99.90
7494;DHT22;3788;49.902;8.590;2022-11-15T09:32:53;13.10;99.90
7494;DHT22;3788;49.902;8.590;2022-11-15T09:35:20;13.10;99.90
7494;DHT22;3788;49.902;8.590;2022-11-15T09:37:47;13.10;99.90
7494;DHT22;3788;49.902;8.590;2022-11-15T09:40:15;13.10;99.90
7494;DHT22;3788;49.902;8.590;2022-11-15T09:43:23;13.10;99.90
7494;DHT22;3788;49.902;8.590;2022-11-15T09:45:57;13.20;99.90
7494;DHT22;3788;49.902;8.590;2022-11-15T09:48:51;13.20;99.90
7494;DHT22;3788;49.902;8.590;2022-11-15T09:51:26;13.30;99.90
7494;DHT22;3788;49.902;8.590;2022-11-15T09:53:59;13.30;99.90
7494;DHT22;3788;49.902;8.590;2022-11-15T09:56:29;13.40;99.90
7494;DHT22;3788;49.902;8.590;2022-11-15T09:59:15;13.50;99.90
7494;DHT22;3788;49.902;8.590;2022-11-15T10:01:49;13.50;99.90
7494;DHT22;3788;49.902;8.590;2022-11-15T10:04:22;13.50;99.90
7494;DHT22;3788;49.902;8.590;2022-11-15T10:06:55;13.50;99.90
7494;DHT22;3788;49.902;8.590;2022-11-15T10:09:27;13.60;99.90
7494;DHT22;3788;49.902;8.590;2022-11-15T10:11:55;13.50;99.90
7494;DHT22;3788;49.902;8.590;2022-11-15T10:14:25;13.50;99.90
7494;DHT22;3788;49.902;8.590;2022-11-15T10:17:06;13.50;99.90
7494;DHT22;3788;49.902;8.590;2022-11-15T10:19:44;13.50;99.90
7494;DHT22;3788;49.902;8.590;2022-11-15T10:22:24;13.60;99.90
7494;DHT22;3788;49.902;8.590;2022-11-15T10:25:03;13.60;99.90
7494;DHT22;3788;49.902;8.590;2022-11-15T10:27:36;13.60;99.90
7494;DHT22;3788;49.902;8.590;2022-11-15T10:30:06;13.60;99.90
7494;DHT22;3788;49.902;8.590;2022-11-15T10:32:36;13.60;99.90
7494;DHT22;3788;49.902;8.590;2022-11-15T10:35:19;13.60;99.90
7494;DHT22;3788;49.902;8.590;2022-11-15T10:37:47;13.50;99.90
7494;DHT22;3788;49.902;8.590;2022-11-15T10:40:19;13.50;99.90
7494;DHT22;3788;49.902;8.590;2022-11-15T10:42:46;13.50;99.90
7494;DHT22;3788;49.902;8.590;2022-11-15T10:45:25;13.60;99.90
7494;DHT22;3788;49.902;8.590;2022-11-15T10:47:53;13.60;99.90
7494;DHT22;3788;49.902;8.590;2022-11-15T10:50:29;13.60;99.90
7494;DHT22;3788;49.902;8.590;2022-11-15T10:53:01;13.60;99.90
7494;DHT22;3788;49.902;8.590;2022-11-15T10:55:30;13.60;99.90
7494;DHT22;3788;49.902;8.590;2022-11-15T10:58:02;13.60;99.90
7494;DHT22;3788;49.902;8.590;2022-11-15T11:00:33;13.50;99.90
7494;DHT22;3788;49.902;8.590;2022-11-15T11:03:01;13.50;99.90
7494;DHT22;3788;49.902;8.590;2022-11-15T11:05:33;13.50;99.90
7494;DHT22;3788;49.902;8.590;2022-11-15T11:08:02;13.50;99.90
7494;DHT22;3788;49.902;8.590;2022-11-15T11:10:31;13.50;99.90
7494;DHT22;3788;49.902;8.590;2022-11-15T11:13:13;13.50;99.90
7494;DHT22;3788;49.902;8.590;2022-11-15T11:15:44;13.60;99.90
7494;DHT22;3788;49.902;8.590;2022-11-15T11:18:18;13.60;99.90
7494;DHT22;3788;49.902;8.590;2022-11-15T11:20:50;13.70;99.90
7494;DHT22;3788;49.902;8.590;2022-11-15T11:23:36;13.70;99.90
7494;DHT22;3788;49.902;8.590;2022-11-15T11:26:15;13.80;99.90
7494;DHT22;3788;49.902;8.590;2022-11-15T11:28:53;14.00;99.90
7494;DHT22;3788;49.902;8.590;2022-11-15T11:31:28;14.10;99.90
7494;DHT22;3788;49.902;8.590;2022-11-15T11:34:02;14.10;99.90
7494;DHT22;3788;49.902;8.590;2022-11-15T11:36:39;14.20;99.90
7494;DHT22;3788;49.902;8.590;2022-11-15T11:39:19;14.20;99.90
7494;DHT22;3788;49.902;8.590;2022-11-15T11:41:56;14.20;99.90
7494;DHT22;3788;49.902;8.590;2022-11-15T11:44:33;14.20;99.90
7494;DHT22;3788;49.902;8.590;2022-11-15T11:47:05;14.30;99.90
7494;DHT22;3788;49.902;8.590;2022-11-15T11:49:39;14.30;99.90
7494;DHT22;3788;49.902;8.590;2022-11-15T11:52:13;14.40;99.90
7494;DHT22;3788;49.902;8.590;2022-11-15T11:54:50;14.40;99.90
7494;DHT22;3788;49.902;8.590;2022-11-15T11:57:27;14.50;99.90
7494;DHT22;3788;49.902;8.590;2022-11-15T12:00:00;14.50;99.90
7494;DHT22;3788;49.902;8.590;2022-11-15T12:02:33;14.50;99.90
7494;DHT22;3788;49.902;8.590;2022-11-15T12:05:08;14.50;99.90
7494;DHT22;3788;49.902;8.590;2022-11-15T12:07:39;14.50;99.90
7494;DHT22;3788;49.902;8.590;2022-11-15T12:10:16;14.50;99.90
7494;DHT22;3788;49.902;8.590;2022-11-15T12:12:49;14.60;99.90
7494;DHT22;3788;49.902;8.590;2022-11-15T12:15:19;14.60;99.90
7494;DHT22;3788;49.902;8.590;2022-11-15T12:17:48;14.60;99.90
7494;DHT22;3788;49.902;8.590;2022-11-15T12:20:17;14.70;99.90
7494;DHT22;3788;49.902;8.590;2022-11-15T12:22:52;14.70;99.90
7494;DHT22;3788;49.902;8.590;2022-11-15T12:25:22;14.80;99.90
7494;DHT22;3788;49.902;8.590;2022-11-15T12:27:53;14.90;99.90
7494;DHT22;3788;49.902;8.590;2022-11-15T12:30:22;14.90;99.90
7494;DHT22;3788;49.902;8.590;2022-11-15T12:32:52;14.90;99.90
7494;DHT22;3788;49.902;8.590;2022-11-15T12:35:27;14.90;99.90
7494;DHT22;3788;49.902;8.590;2022-11-15T12:37:56;14.90;99.90
7494;DHT22;3788;49.902;8.590;2022-11-15T12:40:35;14.90;99.90
7494;DHT22;3788;49.902;8.590;2022-11-15T12:46:04;14.90;99.90
7494;DHT22;3788;49.902;8.590;2022-11-15T12:48:56;14.80;99.90
7494;DHT22;3788;49.902;8.590;2022-11-15T12:54:56;14.70;99.90
7494;DHT22;3788;49.902;8.590;2022-11-15T12:57:37;14.60;99.90
7494;DHT22;3788;49.902;8.590;2022-11-15T13:03:32;14.50;99.90
7494;DHT22;3788;49.902;8.590;2022-11-15T13:06:39;14.60;99.90
7494;DHT22;3788;49.902;8.590;2022-11-15T13:12:48;14.50;99.90
7494;DHT22;3788;49.902;8.590;2022-11-15T13:18:29;14.50;99.90
7494;DHT22;3788;49.902;8.590;2022-11-15T13:20:57;14.40;99.90
7494;DHT22;3788;49.902;8.590;2022-11-15T13:23:24;14.40;99.90
7494;DHT22;3788;49.902;8.590;2022-11-15T13:26:02;14.40;99.90
7494;DHT22;3788;49.902;8.590;2022-11-15T13:28:33;14.40;99.90
7494;DHT22;3788;49.902;8.590;2022-11-15T13:31:02;14.40;99.90
7494;DHT22;3788;49.902;8.590;2022-11-15T13:33:33;14.30;99.90
7494;DHT22;3788;49.902;8.590;2022-11-15T13:36:03;14.30;99.90
7494;DHT22;3788;49.902;8.590;2022-11-15T13:38:33;14.30;99.90
7494;DHT22;3788;49.902;8.590;2022-11-15T13:41:14;14.30;99.90
7494;DHT22;3788;49.902;8.590;2022-11-15T13:43:43;14.30;99.90
7494;DHT22;3788;49.902;8.590;2022-11-15T13:46:12;14.30;99.90
7494;DHT22;3788;49.902;8.590;2022-11-15T13:48:42;14.30;99.90
7494;DHT22;3788;49.902;8.590;2022-11-15T13:51:15;14.30;99.90
7494;DHT22;3788;49.902;8.590;2022-11-15T13:53:46;14.30;99.90
7494;DHT22;3788;49.902;8.590;2022-11-15T13:56:14;14.30;99.90
7494;DHT22;3788;49.902;8.590;2022-11-15T13:58:41;14.30;99.90
7494;DHT22;3788;49.902;8.590;2022-11-15T14:01:14;14.40;99.90
7494;DHT22;3788;49.902;8.590;2022-11-15T14:03:49;14.40;99.90
7494;DHT22;3788;49.902;8.590;2022-11-15T14:06:19;14.30;99.90
7494;DHT22;3788;49.902;8.590;2022-11-15T14:09:00;14.30;99.90
7494;DHT22;3788;49.902;8.590;2022-11-15T14:11:27;14.30;99.90
7494;DHT22;3788;49.902;8.590;2022-11-15T14:14:12;14.40;99.90
7494;DHT22;3788;49.902;8.590;2022-11-15T14:16:43;14.40;99.90
7494;DHT22;3788;49.902;8.590;2022-11-15T14:22:10;14.40;99.90
7494;DHT22;3788;49.902;8.590;2022-11-15T14:24:37;14.50;99.90
7494;DHT22;3788;49.902;8.590;2022-11-15T14:27:23;14.50;99.90
7494;DHT22;3788;49.902;8.590;2022-11-15T14:29:51;14.50;99.90
7494;DHT22;3788;49.902;8.590;2022-11-15T14:32:19;14.50;99.90
7494;DHT22;3788;49.902;8.590;2022-11-15T14:34:49;14.50;99.90
7494;DHT22;3788;49.902;8.590;2022-11-15T14:37:22;14.50;99.90
7494;DHT22;3788;49.902;8.590;2022-11-15T14:39:49;14.50;99.90
7494;DHT22;3788;49.902;8.590;2022-11-15T14:42:16;14.40;99.90
7494;DHT22;3788;49.902;8.590;2022-11-15T14:44:43;14.40;99.90
7494;DHT22;3788;49.902;8.590;2022-11-15T14:47:10;14.40;99.90
7494;DHT22;3788;49.902;8.590;2022-11-15T14:49:37;14.30;99.90
7494;DHT22;3788;49.902;8.590;2022-11-15T14:52:23;14.30;99.90
7494;DHT22;3788;49.902;8.590;2022-11-15T14:54:50;14.30;99.90
7494;DHT22;3788;49.902;8.590;2022-11-15T14:57:17;14.30;99.90
7494;DHT22;3788;49.902;8.590;2022-11-15T14:59:43;14.30;99.90
7494;DHT22;3788;49.902;8.590;2022-11-15T15:02:15;14.30;99.90
7494;DHT22;3788;49.902;8.590;2022-11-15T15:04:43;14.30;99.90
7494;DHT22;3788;49.902;8.590;2022-11-15T15:07:11;14.30;99.90
7494;DHT22;3788;49.902;8.590;2022-11-15T15:09:37;14.30;99.90
7494;DHT22;3788;49.902;8.590;2022-11-15T15:12:05;14.20;99.90
7494;DHT22;3788;49.902;8.590;2022-11-15T15:14:32;14.20;99.90
7494;DHT22;3788;49.902;8.590;2022-11-15T15:16:59;14.20;99.90
7494;DHT22;3788;49.902;8.590;2022-11-15T15:19:27;14.10;99.90
7494;DHT22;3788;49.902;8.590;2022-11-15T15:21:54;14.10;99.90
7494;DHT22;3788;49.902;8.590;2022-11-15T15:24:31;14.00;99.90
7494;DHT22;3788;49.902;8.590;2022-11-15T15:26:58;14.00;99.90
7494;DHT22;3788;49.902;8.590;2022-11-15T15:29:26;14.00;99.90
7494;DHT22;3788;49.902;8.590;2022-11-15T15:31:55;14.00;99.90
7494;DHT22;3788;49.902;8.590;2022-11-15T15:34:22;14.00;99.90
7494;DHT22;3788;49.902;8.590;2022-11-15T15:36:50;14.00;99.90
7494;DHT22;3788;49.902;8.590;2022-11-15T15:39:33;14.00;99.90
7494;DHT22;3788;49.902;8.590;2022-11-15T15:42:00;14.00;99.90
7494;DHT22;3788;49.902;8.590;2022-11-15T15:44:32;14.00;99.90
7494;DHT22;3788;49.902;8.590;2022-11-15T15:46:59;14.00;99.90
7494;DHT22;3788;49.902;8.590;2022-11-15T15:49:28;14.00;99.90
7494;DHT22;3788;49.902;8.590;2022-11-15T15:51:57;14.00;99.90
7494;DHT22;3788;49.902;8.590;2022-11-15T15:54:24;14.00;99.90
7494;DHT22;3788;49.902;8.590;2022-11-15T15:56:55;14.00;99.90
7494;DHT22;3788;49.902;8.590;2022-11-15T15:59:22;14.00;99.90
7494;DHT22;3788;49.902;8.590;2022-11-15T16:01:49;14.00;99.90
7494;DHT22;3788;49.902;8.590;2022-11-15T16:04:15;14.00;99.90
7494;DHT22;3788;49.902;8.590;2022-11-15T16:06:42;14.00;99.90
7494;DHT22;3788;49.902;8.590;2022-11-15T16:09:13;14.00;99.90
7494;DHT22;3788;49.902;8.590;2022-11-15T16:11:43;14.00;99.90
7494;DHT22;3788;49.902;8.590;2022-11-15T16:14:12;14.00;99.90
7494;DHT22;3788;49.902;8.590;2022-11-15T16:16:38;14.00;99.90
7494;DHT22;3788;49.902;8.590;2022-11-15T16:19:05;14.00;99.90
7494;DHT22;3788;49.902;8.590;2022-11-15T16:21:32;13.90;99.90
7494;DHT22;3788;49.902;8.590;2022-11-15T16:23:59;13.90;99.90
7494;DHT22;3788;49.902;8.590;2022-11-15T16:26:28;13.80;99.90
7494;DHT22;3788;49.902;8.590;2022-11-15T16:28:55;13.80;99.90
7494;DHT22;3788;49.902;8.590;2022-11-15T16:31:23;13.80;99.90
7494;DHT22;3788;49.902;8.590;2022-11-15T16:33:50;13.80;99.90
7494;DHT22;3788;49.902;8.590;2022-11-15T16:36:20;13.80;99.90
7494;DHT22;3788;49.902;8.590;2022-11-15T16:38:48;13.80;99.90
7494;DHT22;3788;49.902;8.590;2022-11-15T16:41:15;13.70;99.90
7494;DHT22;3788;49.902;8.590;2022-11-15T16:43:44;13.60;99.90
7494;DHT22;3788;49.902;8.590;2022-11-15T16:46:15;13.60;99.90
7494;DHT22;3788;49.902;8.590;2022-11-15T16:48:44;13.50;99.90